Angelo Coast Range Reserve, California Weather observations

Data are for 10 minute period ending at time listed.
 Day   Time   Solar   Ave.   Ave.  Ave.  Vector  Max.   Baro.   Total    
  of    of     Rad.   Air    Rel.  Wind   Wind   Wind  Press.  Precip.   
Year   Day            Temp.  Hum.  Speed  Dir.   Gust                    
2016   (PST)  Kw/m2    F      %     mph   deg.    mph    mb.     in.     
-------------------------------------------------------------------------
  44    1:50   0.00   46.4    99    0.3     4     1.3   975.0    0.00 
  44    2:00   0.00   46.3    99    0.6     6     2.1   975.1    0.00 
  44    2:10   0.00   45.8    98    0.9     5     1.8   975.1    0.00 
  44    2:20   0.00   45.3    98    1.5    15     2.3   975.1    0.00 
  44    2:30   0.00   45.2    98    0.3   349     2.1   975.2    0.00 
  44    2:40   0.00   45.2    98    1.0    20     2.1   975.2    0.00 
  44    2:50   0.00   45.0    97    0.8     8     2.2   975.2    0.00 
  44    3:00   0.00   45.1    97    1.1    22     2.7   975.1    0.00 
  44    3:10   0.00   44.7    96    0.7    22     2.9   975.1    0.00 
  44    3:20   0.00   44.7    96    0.9    15     2.0   974.8    0.00 
  44    3:30   0.00   44.5    96    0.6    21     1.7   974.7    0.00 
  44    3:40   0.00   44.7    97    0.7   119     1.8   974.6    0.00 
  44    3:50   0.00   44.9    97    0.5   181     1.8   974.5    0.00 
  44    4:00   0.00   44.8    97    0.4   226     2.9   974.5    0.00 
  44    4:10   0.00   44.8    97    0.1   114     0.7   974.5    0.00 
  44    4:20   0.00   44.6    97    0.0   166     0.6   974.6    0.00 
  44    4:30   0.00   44.4    97    0.3   326     2.3   974.7    0.00 
  44    4:40   0.00   44.0    97    0.3   312     1.8   974.7    0.00 
  44    4:50   0.00   43.3    97    1.9   180     3.5   974.8    0.00 
  44    5:00   0.00   42.6    98    0.8   158     1.9   975.0    0.00 
  44    5:10   0.00   42.0    98    1.7   175     2.7   975.3    0.00 
  44    5:20   0.00   41.5    98    1.1   192     2.3   975.4    0.00 
  44    5:30   0.00   41.3    99    0.8   191     1.5   975.4    0.00 
  44    5:40   0.00   41.0    99    0.6   177     1.8   975.1    0.00 
  44    5:50   0.00   41.1    99    0.1   169     1.3   975.0    0.00 
  44    6:00   0.00   41.1    99    1.2   177     2.6   974.9    0.00 
  44    6:10   0.00   41.2    99    0.7   182     2.7   974.9    0.00 
  44    6:20   0.00   41.3    99    1.1   187     1.7   975.0    0.00 
  44    6:30   0.00   41.5    99    1.3   183     2.2   975.2    0.00 
  44    6:40   0.00   41.5   100    1.4   187     2.6   975.4    0.00 
  44    6:50   0.00   41.5   100    1.4   186     2.0   975.4    0.00 
  44    7:00   0.00   41.5   100    0.2   178     1.6   975.7    0.00 
  44    7:10   0.00   41.5   100    0.8    35     2.0   975.9    0.00 
  44    7:20   0.00   41.4    99    0.8   142     2.2   975.9    0.00 
  44    7:30   0.00   41.0    99    0.2   295     1.2   975.9    0.00 
  44    7:40   0.01   41.1    99    0.6   320     2.2   975.8    0.00 
  44    7:50   0.01   41.0    99    1.3    28     2.6   975.9    0.00 
  44    8:00   0.01   40.9    99    1.1    36     2.9   975.9    0.00 
  44    8:10   0.01   40.8    99    0.6    53     2.2   976.1    0.00 
  44    8:20   0.01   40.8    99    0.6    24     2.3   976.1    0.00 
  44    8:30   0.03   40.6   100    1.1    16     2.3   976.2    0.00 
  44    8:40   0.05   40.4   100    0.8    20     2.7   976.5    0.00 
  44    8:50   0.07   40.6   100    0.3    24     1.7   976.7    0.00 
  44    9:00   0.10   40.6    99    1.0    21     2.0   976.7    0.00 
  44    9:10   0.10   40.8    99    0.9    32     2.0   976.6    0.00 
  44    9:20   0.04   40.8    97    0.9    74     1.3   976.6    0.00 
  44    9:30   0.03   40.6    97    1.2    76     1.6   976.7    0.00 
  44    9:40   0.04   40.6    97    0.8    82     1.4   976.7    0.00 
  44    9:50   0.10   41.0    97    0.5    92     1.8   976.7    0.00 
  44   10:00   0.43   42.9    96    0.3   100     1.0   976.7    0.00 
  44   10:10   0.46   44.2    92    0.5    90     1.4   976.8    0.00 
  44   10:20   0.48   45.0    93    0.9    89     1.6   976.9    0.00 
  44   10:30   0.50   47.0    90    0.6    89     1.4   976.8    0.00 
  44   10:40   0.53   48.5    87    0.8    94     1.6   976.6    0.00 
  44   10:50   0.53   50.4    82    0.6    92     1.5   976.6    0.00 
  44   11:00   0.55   51.9    78    1.1    80     1.5   976.3    0.00 
  44   11:10   0.57   52.6    74    0.4    84     1.2   976.3    0.00 
  44   11:20   0.58   54.1    73    0.2    97     0.9   976.4    0.00 
  44   11:30   0.58   55.2    72    0.1   146     0.8   976.3    0.00 
  44   11:40   0.59   56.0    68    0.3    82     1.0   976.1    0.00 
  44   11:50   0.61   56.6    64    0.6   103     1.5   976.0    0.00 
  44   12:00   0.60   57.8    61    0.5   154     1.7   975.8    0.00 
  44   12:10   0.60   59.0    61    0.2   147     1.1   975.7    0.00 
  44   12:20   0.60   60.4    62    0.6   156     1.9   975.5    0.00 
  44   12:30   0.61   61.1    61    0.6   155     2.0   975.5    0.00 
  44   12:40   0.62   62.3    62    0.5   166     2.2   975.2    0.00 
  44   12:50   0.59   61.7    65    0.7   178     2.3   975.0    0.00 
  44   13:00   0.59   61.5    64    0.2   215     1.4   975.0    0.00 
  44   13:10   0.53   62.0    64    0.7   173     2.4   975.0    0.00 
  44   13:20   0.52   62.6    63    1.5   166     4.4   975.0    0.00 
  44   13:30   0.46   62.0    61    1.3   181     4.3   974.9    0.00 
  44   13:40   0.46   62.3    63    1.1   182     4.2   974.8    0.00 
  44   13:50   0.43   62.0    65    0.7   222     1.9   974.8    0.00 
  44   14:00   0.42   62.6    55    0.9   320     3.6   974.8    0.00 
  44   14:10   0.41   63.2    54    1.0   344     2.2   974.8    0.00 
  44   14:20   0.40   63.0    52    1.1   358     3.4   974.6    0.00 
  44   14:30   0.36   62.1    54    0.5   325     1.8   974.5    0.00 
  44   14:40   0.33   61.6    54    0.3   244     1.2   974.4    0.00 
  44   14:50   0.21   60.8    57    0.6   304     2.0   974.3    0.00 
  44   15:00   0.19   60.5    56    0.5   179     1.6   974.3    0.00 
  44   15:10   0.21   60.5    60    2.0    20     5.1   974.3    0.00 
  44   15:20   0.15   61.0    53    2.0    33     4.7   974.4    0.00 
  44   15:30   0.15   60.9    51    2.1    29     5.8   974.6    0.00 
  44   15:40   0.14   60.2    58    1.5    84     4.4   975.1    0.00 
  44   15:50   0.13   60.3    56    1.6    70     4.4   975.3    0.00 
  44   16:00   0.10   59.7    63    1.4   186     3.2   975.2    0.00 
  44   16:10   0.09   58.6    70    0.5   189     2.0   975.2    0.00 
  44   16:20   0.08   58.0    73    0.0   177     0.8   975.1    0.00 
  44   16:30   0.08   57.0    78    1.1   172     2.2   974.9    0.00 
  44   16:40   0.07   56.1    76    0.3     5     1.2   975.0    0.00 
  44   16:50   0.06   55.5    79    0.1   304     0.9   975.0    0.00 
  44   17:00   0.05   54.8    78    0.4   359     1.5   975.1    0.00 
  44   17:10   0.04   54.1    82    0.1   312     0.9   975.1    0.00 
  44   17:20   0.02   53.8    81    0.2     1     0.8   975.1    0.00 
  44   17:30   0.01   53.2    82    0.2     4     1.3   975.1    0.00 
  44   17:40   0.01   52.4    83    0.0     6     0.7   975.1    0.00 
  44   17:50   0.00   51.9    83    0.0     0     0.0   975.3    0.00 
  44   18:00   0.00   51.4    84    0.1     4     0.9   975.5    0.00 
  44   18:10   0.00   50.7    85    0.1   327     1.0   975.7    0.00 
  44   18:20   0.00   50.1    87    0.2    28     0.9   975.7    0.00 
  44   18:30   0.00   49.5    86    0.2   347     1.2   975.8    0.00 
  44   18:40   0.00   49.0    86    0.1   336     0.8   975.9    0.00 
  44   18:50   0.00   48.7    86    0.0   230     0.3   975.9    0.00 
  44   19:00   0.00   48.5    87    0.0     0     0.0   975.8    0.00 
  44   19:10   0.00   48.0    87    0.1     0     0.8   975.8    0.00 
  44   19:20   0.00   47.7    87    0.0     0     0.0   975.7    0.00 
  44   19:30   0.00   47.4    88    0.3     1     1.5   975.7    0.00 
  44   19:40   0.00   47.0    89    0.2   360     0.8   975.8    0.00 
  44   19:50   0.00   46.6    88    0.2   350     0.8   975.9    0.00 
  44   20:00   0.00   46.1    88    0.1   350     0.6   976.1    0.00 
  44   20:10   0.00   46.0    90    0.0     0     0.0   976.3    0.00 
  44   20:20   0.00   45.8    90    0.0    27     0.7   976.6    0.00 
  44   20:30   0.00   45.8    91    0.6   161     2.9   976.8    0.00 
  44   20:40   0.00   46.0    93    0.9   174     3.1   976.9    0.00 
  44   20:50   0.00   46.1    93    2.0   174     3.2   976.9    0.00 
  44   21:00   0.00   46.0    93    0.3   206     1.9   977.1    0.00 
  44   21:10   0.00   45.9    92    0.1   182     0.8   977.5    0.00 
  44   21:20   0.00   45.8    92    0.0     0     0.0   977.7    0.00 
  44   21:30   0.00   45.7    92    0.8   183     2.0   977.8    0.00 
  44   21:40   0.00   45.4    93    0.6   186     1.4   977.8    0.00 
  44   21:50   0.00   45.2    93    0.0   224     0.4   977.7    0.00 
  44   22:00   0.00   44.9    93    0.0     0     0.0   977.8    0.00 
  44   22:10   0.00   44.4    94    0.4   185     1.5   977.6    0.00 
  44   22:20   0.00   43.8    95    0.9   178     1.6   977.5    0.00 
  44   22:30   0.00   43.6    95    0.1   202     0.9   977.6    0.00 
  44   22:40   0.00   43.4    95    0.1   203     0.9   977.6    0.00 
  44   22:50   0.00   43.2    95    0.2   195     0.9   977.6    0.00 
  44   23:00   0.00   42.8    95    0.2   225     1.4   977.7    0.00 
  44   23:10   0.00   42.6    96    0.2   190     1.2   977.6    0.00 
  44   23:20   0.00   42.4    96    0.4   309     1.4   977.6    0.00 
  44   23:30   0.00   42.4    96    0.0   229     0.7   977.9    0.00 
  44   23:40   0.00   42.3    96    0.1   340     1.0   977.9    0.00 
  44   23:50   0.00   42.0    96    0.3   192     1.6   978.0    0.00 
  45    0:00   0.00   41.7    96    0.0     0     0.0   978.0    0.00 
  45    0:10   0.00   41.6    96    0.0     0     0.0   978.3    0.00 
  45    0:20   0.00   41.4    96    0.2   174     1.4   978.3    0.00 
  45    0:30   0.00   41.4    96    0.1   174     1.1   978.5    0.00 
  45    0:40   0.00   41.8    96    0.1   175     1.0   978.4    0.00 
  45    0:50   0.00   42.2    96    0.4   162     1.4   978.2    0.00 
  45    1:00   0.00   42.5    95    0.7   352     3.1   978.1    0.00 
  45    1:10   0.00   42.7    94    1.0     8     2.9   978.1    0.00 
  45    1:20   0.00   42.9    93    0.6   107     1.8   978.2    0.00 
  45    1:30   0.00   43.0    93    0.7   346     1.6   978.0    0.00 
  45    1:40   0.00   43.0    94    0.1    18     0.9   978.2    0.00 

Return to Angelo Coast Range Reserve graphs page.


Western Regional Climate Center,wrcc@dri.edu